createdAt,value
2023-01-10T00:01:10.110Z,65.18
2023-01-10T00:04:13.961Z,65.52
2023-01-10T00:07:16.664Z,66.27
2023-01-10T00:10:18.951Z,65.32
2023-01-10T00:13:24.663Z,66.38
2023-01-10T00:16:27.735Z,65.39
2023-01-10T00:19:31.007Z,65.10
2023-01-10T00:22:33.581Z,64.78
2023-01-10T00:25:36.771Z,65.67
2023-01-10T00:28:39.974Z,64.90
2023-01-10T00:31:42.398Z,64.09
2023-01-10T00:34:45.375Z,65.49
2023-01-10T00:37:48.320Z,65.76
2023-01-10T00:40:50.883Z,65.39
2023-01-10T00:43:59.877Z,64.48
2023-01-10T00:47:02.911Z,65.20
2023-01-10T00:50:08.899Z,64.24
2023-01-10T00:53:12.587Z,65.47
2023-01-10T00:56:15.067Z,64.28
2023-01-10T00:59:17.451Z,64.29
2023-01-10T01:02:19.891Z,65.12
2023-01-10T01:05:22.548Z,65.43
2023-01-10T01:08:24.726Z,65.93
2023-01-10T01:11:27.179Z,65.52
2023-01-10T01:14:29.749Z,66.07
2023-01-10T01:17:39.977Z,65.47
2023-01-10T01:20:43.170Z,64.70
2023-01-10T01:23:45.361Z,65.01
2023-01-10T01:26:48.419Z,66.35
2023-01-10T01:29:51.123Z,65.88
2023-01-10T01:32:53.568Z,66.11
2023-01-10T01:35:56.366Z,65.94
2023-01-10T01:39:00.034Z,66.33
2023-01-10T01:42:02.923Z,66.12
2023-01-10T01:45:20.133Z,65.70
2023-01-10T01:48:27.566Z,66.60
2023-01-10T01:51:31.469Z,67.04
2023-01-10T01:54:34.767Z,67.09
2023-01-10T01:57:37.822Z,67.40
2023-01-10T02:00:40.145Z,67.62
2023-01-10T02:03:47.613Z,67.23
2023-01-10T02:06:55.596Z,66.28
2023-01-10T02:10:12.199Z,67.06
2023-01-10T02:13:16.380Z,67.13
2023-01-10T02:16:19.796Z,66.81
2023-01-10T02:19:25.259Z,67.27
2023-01-10T02:22:48.286Z,66.84
2023-01-10T02:25:56.167Z,66.71
2023-01-10T02:29:16.649Z,67.30
2023-01-10T02:32:48.002Z,67.79
2023-01-10T02:36:05.810Z,68.43
2023-01-10T02:39:22.962Z,67.38
2023-01-10T02:42:48.722Z,67.08
2023-01-10T02:45:59.758Z,67.03
2023-01-10T02:49:02.809Z,67.49
2023-01-10T02:52:04.973Z,66.17
2023-01-10T02:55:08.372Z,66.74
2023-01-10T02:58:28.252Z,67.19
2023-01-10T03:01:58.162Z,66.45
2023-01-10T03:05:19.603Z,67.38
2023-01-10T03:08:34.484Z,67.35
2023-01-10T03:11:41.490Z,66.47
2023-01-10T03:14:46.629Z,66.52
2023-01-10T03:17:55.664Z,66.57
2023-01-10T03:20:59.889Z,66.66
2023-01-10T03:24:08.164Z,67.00
2023-01-10T03:27:19.385Z,67.89
2023-01-10T03:30:38.818Z,67.83
2023-01-10T03:33:42.159Z,66.74
2023-01-10T03:37:03.547Z,67.15
2023-01-10T03:40:23.686Z,67.14
2023-01-10T03:43:55.586Z,67.25
2023-01-10T03:47:05.384Z,65.81
2023-01-10T03:50:23.442Z,66.32
2023-01-10T03:53:25.646Z,65.87
2023-01-10T03:56:28.462Z,66.14
2023-01-10T03:59:30.798Z,65.46
2023-01-10T04:02:33.243Z,66.17
2023-01-10T04:05:36.074Z,65.57
2023-01-10T04:08:38.431Z,66.26
2023-01-10T04:11:40.493Z,66.25
2023-01-10T04:14:43.054Z,66.32
2023-01-10T04:17:45.940Z,66.43
2023-01-10T04:20:47.936Z,65.76
2023-01-10T04:23:50.097Z,66.51
2023-01-10T04:26:52.311Z,66.00
2023-01-10T04:29:54.419Z,65.61
2023-01-10T04:32:56.659Z,66.44
2023-01-10T04:35:58.935Z,65.60
2023-01-10T04:39:01.555Z,66.17
2023-01-10T04:42:04.772Z,65.57
2023-01-10T04:45:12.626Z,65.60
2023-01-10T04:48:15.082Z,65.28
2023-01-10T04:51:19.987Z,65.71
2023-01-10T04:54:22.883Z,65.84
2023-01-10T04:57:24.991Z,65.67
2023-01-10T05:00:27.322Z,65.28
2023-01-10T05:03:29.668Z,65.73
2023-01-10T05:06:32.349Z,66.65
2023-01-10T05:09:35.156Z,66.35
2023-01-10T05:12:37.169Z,66.54
2023-01-10T05:15:39.265Z,66.94
2023-01-10T05:18:41.572Z,66.75
2023-01-10T05:21:43.700Z,66.94
2023-01-10T05:24:45.720Z,66.91
2023-01-10T05:27:47.860Z,66.64
2023-01-10T05:30:50.235Z,67.01
2023-01-10T05:33:52.814Z,66.36
2023-01-10T05:36:56.591Z,65.95
2023-01-10T05:40:00.178Z,65.56
2023-01-10T05:43:03.104Z,65.94
2023-01-10T05:46:05.602Z,65.49
2023-01-10T05:49:07.785Z,65.96
2023-01-10T05:52:12.410Z,65.96
2023-01-10T05:55:17.531Z,66.04
2023-01-10T05:58:20.010Z,65.87
2023-01-10T06:01:26.002Z,65.53
2023-01-10T06:04:28.058Z,66.86
2023-01-10T06:07:35.988Z,74.60
2023-01-10T06:10:40.156Z,72.98
2023-01-10T06:13:43.374Z,73.55
2023-01-10T06:16:46.696Z,71.74
2023-01-10T06:19:49.020Z,70.30
2023-01-10T06:22:51.591Z,70.69
2023-01-10T06:25:53.654Z,71.96
2023-01-10T06:28:55.803Z,72.21
2023-01-10T06:31:58.008Z,69.31
2023-01-10T06:35:00.116Z,68.93
2023-01-10T06:38:04.029Z,69.81
2023-01-10T06:41:13.258Z,66.84
2023-01-10T06:44:15.415Z,64.35
2023-01-10T06:47:19.663Z,62.86
2023-01-10T06:50:22.854Z,61.89
2023-01-10T06:53:25.592Z,60.74
2023-01-10T06:56:27.836Z,60.30
2023-01-10T06:59:29.992Z,61.21
2023-01-10T07:02:32.952Z,59.35
2023-01-10T07:05:36.204Z,58.88
2023-01-10T07:08:39.968Z,58.88
2023-01-10T07:11:42.149Z,59.82
2023-01-10T07:14:44.415Z,56.86
2023-01-10T07:17:46.407Z,55.57
2023-01-10T07:20:48.571Z,55.70
2023-01-10T07:23:51.089Z,57.09
2023-01-10T07:26:57.991Z,54.88
2023-01-10T07:30:00.843Z,55.66
2023-01-10T07:33:06.659Z,55.96
2023-01-10T07:36:08.844Z,54.23
2023-01-10T07:39:11.272Z,54.55
2023-01-10T07:42:14.547Z,56.23
2023-01-10T07:45:18.678Z,53.98
2023-01-10T07:48:21.368Z,53.15
2023-01-10T07:51:23.829Z,54.47
2023-01-10T07:54:26.574Z,53.73
2023-01-10T07:57:31.038Z,53.54
2023-01-10T08:00:32.999Z,54.47
2023-01-10T08:03:35.808Z,53.97
2023-01-10T08:06:37.951Z,52.53
2023-01-10T08:09:39.966Z,52.59
2023-01-10T08:12:42.091Z,53.56
2023-01-10T08:15:47.645Z,52.29
2023-01-10T08:18:49.851Z,53.28
2023-01-10T08:21:51.895Z,54.01
2023-01-10T08:24:54.200Z,53.38
2023-01-10T08:27:57.004Z,53.08
2023-01-10T08:30:59.272Z,55.18
2023-01-10T08:34:01.413Z,54.09
2023-01-10T08:37:03.628Z,52.30
2023-01-10T08:40:06.345Z,52.08
2023-01-10T08:43:12.147Z,54.48
2023-01-10T08:46:14.380Z,52.59
2023-01-10T08:49:16.611Z,52.13
2023-01-10T08:52:19.063Z,53.83
2023-01-10T08:55:22.790Z,52.57
2023-01-10T08:58:24.825Z,52.08
2023-01-10T09:04:32.799Z,53.40
2023-01-10T09:07:36.407Z,53.54
2023-01-10T09:10:38.406Z,53.00
2023-01-10T09:16:43.530Z,52.74
2023-01-10T09:19:46.279Z,52.32
2023-01-10T09:22:48.435Z,56.61
2023-01-10T09:25:54.278Z,54.67
2023-01-10T09:28:58.998Z,52.91
2023-01-10T09:32:01.409Z,54.55
2023-01-10T09:35:06.121Z,55.25
2023-01-10T09:38:11.975Z,55.88
2023-01-10T09:41:51.940Z,59.68
2023-01-10T09:45:03.761Z,63.33
2023-01-10T09:48:14.889Z,63.72
2023-01-10T09:51:42.657Z,66.57
2023-01-10T09:54:46.182Z,64.67
2023-01-10T09:57:49.149Z,60.67
2023-01-10T10:01:05.632Z,61.33
2023-01-10T10:04:37.588Z,61.32
2023-01-10T10:07:44.057Z,58.84
2023-01-10T10:11:11.405Z,58.04
2023-01-10T10:14:42.593Z,59.76
2023-01-10T10:17:51.713Z,56.68
2023-01-10T10:21:01.807Z,58.01
2023-01-10T10:24:29.816Z,61.01
2023-01-10T10:27:39.436Z,58.73
2023-01-10T10:31:00.482Z,59.07
2023-01-10T10:34:05.339Z,60.16
2023-01-10T10:37:19.486Z,58.03
2023-01-10T10:40:26.338Z,57.69
2023-01-10T10:43:36.908Z,60.65
2023-01-10T10:46:39.890Z,58.13
2023-01-10T10:49:59.879Z,56.29
2023-01-10T10:53:05.039Z,57.10
2023-01-10T10:56:14.039Z,57.18
2023-01-10T10:59:20.352Z,56.28
2023-01-10T11:02:38.077Z,56.58
2023-01-10T11:05:43.510Z,57.58
2023-01-10T11:08:47.676Z,55.80
2023-01-10T11:11:52.541Z,56.61
2023-01-10T11:14:55.468Z,59.53
2023-01-10T11:18:33.064Z,55.90
2023-01-10T11:21:38.905Z,59.22
2023-01-10T11:24:53.441Z,59.52
2023-01-10T11:28:04.436Z,53.75
2023-01-10T11:31:15.272Z,52.99
2023-01-10T11:34:30.289Z,55.35
2023-01-10T11:37:36.420Z,54.10
2023-01-10T11:40:40.587Z,53.30
2023-01-10T11:43:42.687Z,53.43
2023-01-10T11:46:50.831Z,53.75
2023-01-10T11:50:04.137Z,52.45
2023-01-10T11:53:07.643Z,56.33
2023-01-10T11:56:25.118Z,55.45
2023-01-10T11:59:28.557Z,53.06
2023-01-10T12:02:39.852Z,52.28
2023-01-10T12:05:52.009Z,53.56
2023-01-10T12:08:56.482Z,53.77
2023-01-10T12:12:18.411Z,56.70
2023-01-10T12:15:32.071Z,55.67
2023-01-10T12:18:34.496Z,53.47
2023-01-10T12:21:41.966Z,52.59
2023-01-10T12:24:52.352Z,54.08
2023-01-10T12:27:57.876Z,52.66
2023-01-10T12:31:01.389Z,52.53
2023-01-10T12:34:14.961Z,54.52
2023-01-10T12:37:32.244Z,54.22
2023-01-10T12:41:01.243Z,54.00
2023-01-10T12:44:15.199Z,53.73
2023-01-10T12:47:32.207Z,52.92
2023-01-10T12:50:45.736Z,52.47
2023-01-10T12:53:54.712Z,54.47
2023-01-10T12:57:05.641Z,53.31
2023-01-10T13:00:21.015Z,51.60
2023-01-10T13:03:31.754Z,51.81
2023-01-10T13:06:38.512Z,53.18
2023-01-10T13:09:43.370Z,51.56
2023-01-10T13:12:55.268Z,51.79
2023-01-10T13:16:34.183Z,52.73
2023-01-10T13:19:36.233Z,51.74
2023-01-10T13:22:38.528Z,51.22
2023-01-10T13:25:40.726Z,54.78
2023-01-10T13:28:56.264Z,54.54
2023-01-10T13:32:01.606Z,53.02
2023-01-10T13:35:19.460Z,55.51
2023-01-10T13:38:34.822Z,54.07
2023-01-10T13:42:14.255Z,54.04
2023-01-10T13:45:30.169Z,54.98
2023-01-10T13:48:32.242Z,54.46
2023-01-10T13:51:36.344Z,53.59
2023-01-10T13:54:38.432Z,52.75
2023-01-10T13:57:51.736Z,53.20
2023-01-10T14:01:17.554Z,52.25
2023-01-10T14:04:23.803Z,53.17
2023-01-10T14:07:42.441Z,54.13
2023-01-10T14:10:44.505Z,51.70
2023-01-10T14:13:56.599Z,52.40
2023-01-10T14:17:30.782Z,53.49
2023-01-10T14:20:44.837Z,51.00
2023-01-10T14:23:52.406Z,51.59
2023-01-10T14:26:57.481Z,52.87
2023-01-10T14:30:02.230Z,51.94
2023-01-10T14:33:16.252Z,51.15
2023-01-10T14:36:27.583Z,52.64
2023-01-10T14:39:42.542Z,51.35
2023-01-10T14:44:29.228Z,53.19
2023-01-10T14:47:34.737Z,52.89
2023-01-10T14:50:36.838Z,52.35
2023-01-10T14:53:45.892Z,53.90
2023-01-10T14:56:53.213Z,55.46
2023-01-10T15:00:09.334Z,51.89
2023-01-10T15:03:19.361Z,53.51
2023-01-10T15:06:21.639Z,55.11
2023-01-10T15:09:25.292Z,50.52
2023-01-10T15:12:31.469Z,50.27
2023-01-10T15:15:35.453Z,50.13
2023-01-10T15:18:47.261Z,50.73
2023-01-10T15:21:49.683Z,49.91
2023-01-10T15:25:00.012Z,51.63
2023-01-10T15:28:03.035Z,54.50
2023-01-10T15:31:08.752Z,51.33
2023-01-10T15:34:19.566Z,50.99
2023-01-10T15:37:26.805Z,52.44
2023-01-10T15:40:37.973Z,49.97
2023-01-10T15:43:40.669Z,49.71
2023-01-10T15:46:55.969Z,51.80
2023-01-10T15:50:00.268Z,50.76
2023-01-10T15:53:06.255Z,50.37
2023-01-10T15:56:16.308Z,52.09
2023-01-10T15:59:33.032Z,51.23
2023-01-10T16:02:35.419Z,49.98
2023-01-10T16:05:37.634Z,51.00
2023-01-10T16:08:39.951Z,50.97
2023-01-10T16:12:06.881Z,51.70
2023-01-10T16:15:30.200Z,55.10
2023-01-10T16:18:33.143Z,56.77
2023-01-10T16:21:39.669Z,57.11
2023-01-10T16:24:43.158Z,58.09
2023-01-10T16:27:46.416Z,59.74
2023-01-10T16:30:48.782Z,60.23
2023-01-10T16:33:52.537Z,60.61
2023-01-10T16:36:54.702Z,60.67
2023-01-10T16:39:59.749Z,61.12
2023-01-10T16:43:21.941Z,61.55
2023-01-10T16:46:26.447Z,62.62
2023-01-10T16:49:29.755Z,62.06
2023-01-10T16:52:32.511Z,62.15
2023-01-10T16:55:54.871Z,62.20
2023-01-10T16:58:59.995Z,63.63
2023-01-10T17:02:06.374Z,63.19
2023-01-10T17:09:24.187Z,63.80
2023-01-10T17:12:37.452Z,61.67
2023-01-10T17:15:39.630Z,59.41
2023-01-10T17:18:42.191Z,60.62
2023-01-10T17:21:44.335Z,62.05
2023-01-10T17:24:46.421Z,63.57
2023-01-10T17:27:48.918Z,64.13
2023-01-10T17:30:52.376Z,64.43
2023-01-10T17:33:57.725Z,64.79
2023-01-10T17:37:00.169Z,65.34
2023-01-10T17:40:05.397Z,65.39
2023-01-10T17:43:07.865Z,64.78
2023-01-10T17:46:11.285Z,64.55
2023-01-10T17:49:13.720Z,63.93
2023-01-10T17:52:19.142Z,64.35
2023-01-10T17:55:23.059Z,64.32
2023-01-10T17:58:28.610Z,64.69
2023-01-10T18:01:31.093Z,64.42
2023-01-10T18:04:38.393Z,64.85
2023-01-10T18:07:40.844Z,65.09
2023-01-10T18:10:42.948Z,65.05
2023-01-10T18:13:51.408Z,64.52
2023-01-10T18:16:57.033Z,64.37
2023-01-10T18:19:59.340Z,65.28
2023-01-10T18:23:20.473Z,65.04
2023-01-10T18:26:24.085Z,65.35
2023-01-10T18:29:26.725Z,65.22
2023-01-10T18:32:31.508Z,67.49
2023-01-10T18:35:36.455Z,73.56
2023-01-10T18:38:40.397Z,74.66
2023-01-10T18:41:42.981Z,75.63
2023-01-10T18:44:45.574Z,78.26
2023-01-10T18:47:52.557Z,84.28
2023-01-10T18:50:58.168Z,85.45
2023-01-10T18:54:07.121Z,95.63
2023-01-10T18:57:15.250Z,100.00
2023-01-10T19:00:17.731Z,100.00
2023-01-10T19:03:20.872Z,93.13
2023-01-10T19:06:25.422Z,69.19
2023-01-10T19:09:29.271Z,66.29
2023-01-10T19:12:31.398Z,77.47
2023-01-10T19:15:33.643Z,91.43
2023-01-10T19:18:36.705Z,98.04
2023-01-10T19:21:45.506Z,99.26
2023-01-10T19:24:47.708Z,100.00
2023-01-10T19:27:52.628Z,100.00
2023-01-10T19:31:04.292Z,100.00
2023-01-10T19:34:07.226Z,100.00
2023-01-10T19:37:11.938Z,100.00
2023-01-10T19:40:14.629Z,100.00
2023-01-10T19:43:18.053Z,97.63
2023-01-10T19:46:20.208Z,96.40
2023-01-10T19:49:24.525Z,94.95
2023-01-10T19:52:27.711Z,92.98
2023-01-10T19:55:29.909Z,92.09
2023-01-10T19:58:33.094Z,90.89
2023-01-10T20:01:35.436Z,89.83
2023-01-10T20:04:38.198Z,88.42
2023-01-10T20:07:40.501Z,87.30
2023-01-10T20:10:42.759Z,86.59
2023-01-10T20:13:48.769Z,86.34
2023-01-10T20:16:52.555Z,85.92
2023-01-10T20:19:55.854Z,84.35
2023-01-10T20:22:58.109Z,85.46
2023-01-10T20:26:06.457Z,84.90
2023-01-10T20:29:09.404Z,83.81
2023-01-10T20:32:15.220Z,83.22
2023-01-10T20:35:26.711Z,82.51
2023-01-10T20:38:30.824Z,81.45
2023-01-10T20:41:33.516Z,80.19
2023-01-10T20:44:35.876Z,79.90
2023-01-10T20:47:41.560Z,79.89
2023-01-10T20:51:05.246Z,80.07
2023-01-10T20:54:16.876Z,78.97
2023-01-10T20:57:20.513Z,85.91
2023-01-10T21:00:22.851Z,95.02
2023-01-10T21:03:26.630Z,95.65
2023-01-10T21:06:31.592Z,95.39
2023-01-10T21:09:34.078Z,95.22
2023-01-10T21:12:36.072Z,95.86
2023-01-10T21:15:43.748Z,94.35
2023-01-10T21:18:46.913Z,93.38
2023-01-10T21:21:49.026Z,91.94
2023-01-10T21:25:12.472Z,92.27
2023-01-10T21:28:14.724Z,90.46
2023-01-10T21:31:19.768Z,91.31
2023-01-10T21:34:22.241Z,89.02
2023-01-10T21:37:24.579Z,89.34
2023-01-10T21:40:27.746Z,88.59
2023-01-10T21:43:32.307Z,87.03
2023-01-10T21:46:38.014Z,86.75
2023-01-10T21:49:40.220Z,86.27
2023-01-10T21:52:45.836Z,85.54
2023-01-10T21:55:53.739Z,85.08
2023-01-10T21:58:56.230Z,85.07
2023-01-10T22:01:58.613Z,81.84
2023-01-10T22:05:02.007Z,80.69
2023-01-10T22:08:05.563Z,78.52
2023-01-10T22:11:17.081Z,77.64
2023-01-10T22:14:19.575Z,77.66
2023-01-10T22:17:22.191Z,77.77
2023-01-10T22:20:24.406Z,76.98
2023-01-10T22:23:29.134Z,78.15
2023-01-10T22:26:32.627Z,76.80
2023-01-10T22:29:36.622Z,75.89
2023-01-10T22:32:41.746Z,76.91
2023-01-10T22:35:46.440Z,76.43
2023-01-10T22:38:52.046Z,75.40
2023-01-10T22:41:55.573Z,76.90
2023-01-10T22:44:58.214Z,75.70
2023-01-10T22:48:02.617Z,75.46
2023-01-10T22:51:05.868Z,75.38
2023-01-10T22:54:12.707Z,74.80
2023-01-10T22:57:19.518Z,75.87
2023-01-10T23:00:23.014Z,76.21
2023-01-10T23:03:25.448Z,74.79
2023-01-10T23:06:29.093Z,74.35
2023-01-10T23:09:31.243Z,74.24
2023-01-10T23:12:35.048Z,74.88
2023-01-10T23:15:37.274Z,73.68
2023-01-10T23:18:40.923Z,74.86
2023-01-10T23:21:44.519Z,75.40
2023-01-10T23:24:47.753Z,75.66
2023-01-10T23:27:52.545Z,75.05
2023-01-10T23:30:56.048Z,76.39
2023-01-10T23:34:00.908Z,74.52
2023-01-10T23:37:03.785Z,76.24
2023-01-10T23:40:06.620Z,75.55
2023-01-10T23:43:08.639Z,76.70
2023-01-10T23:46:10.926Z,75.79
2023-01-10T23:49:13.629Z,76.24
2023-01-10T23:52:15.843Z,75.31
2023-01-10T23:55:20.084Z,75.49
2023-01-10T23:58:22.582Z,76.02
